• Join FlightAware (Why Join?)
  • Login
  • US Flag 
03:35AM EDT


 

Airport Tracker/Info


-or-


 

Live Flight TrackerFlight Track Log ✈ N677F ✈ 12-Jun-2013 ✈ KBJC - KBJC

Flight Track Log - Related Links

Times and Time Zones

All times are in EDT time to prevent confusion due to time zone crossing. See the N677F flight status page for this flight to view local times or setup timezone preferences in your user account.

Time Position Orientation Groundspeed Altitude Reporting Facility
EDT Latitude Longitude Course Direction KTS MPH feet Rate Location/Type
05:04AM 39.8667 -105.0500 180° South 226 260 7,800  Level Denver TRACON
05:05AM 39.8500 -104.9500 102° East 276 318 9,700 1,620 Climbing Denver TRACON
05:06AM 39.8350 -104.8572 102° East 311 358 11,000 2,160 Climbing Denver Center
05:07AM 39.8153 -104.7175 100° East 367 422 13,900 2,460 Climbing Denver Center
05:08AM 39.8236 -104.5875 85° East 373 429 16,000 2,040 Climbing Denver Center
05:09AM 39.9088 -105.1172 180° South  Level Estimated
05:09AM 39.8561 -104.4519 73° East 393 452 18,100  Level Denver Center
05:10AM 39.8900 -104.3150 72° East 401 461 20,600 2,220 Climbing Denver Center
05:11AM 39.9236 -104.1719 73° East 417 480 22,600 1,920 Climbing Denver Center
05:12AM 39.9567 -104.0342 73° East 432 497 24,500 1,800 Climbing Denver Center
05:13AM 39.9942 -103.8811 72° East 445 512 26,300 1,680 Climbing Denver Center
05:14AM 40.0333 -103.7167 73° East 473 544 27,900 1,140 Climbing Denver Center
05:15AM 40.0728 -103.5450 73° East 501 577 28,600 1,020 Climbing Denver Center
05:16AM 40.1142 -103.3631 73° East 520 598 30,000 1,260 Climbing Denver Center
05:17AM 40.1550 -103.1769 74° East 533 613 31,200 2,040 Climbing Denver Center
05:18AM 40.1817 -102.9872 80° East 529 609 34,200 2,580 Climbing Denver Center
05:19AM 40.2067 -102.8100 79° East 501 577 36,400 1,860 Climbing Denver Center
05:20AM 40.2331 -102.6153 80° East 489 563 38,000 1,500 Climbing Denver Center
05:21AM 40.2558 -102.4481 80° East 488 562 39,500 1,260 Climbing Denver Center
05:22AM 40.2869 -102.2622 78° East 470 541 40,600 660 Climbing Denver Center
05:23AM 40.3789 -102.1539 42° Northeast 474 545 40,900 180 Climbing Denver Center
05:24AM 40.4911 -102.1969 344° North 458 527 41,000  Climbing Denver Center
05:25AM 40.5425 -102.3389 296° West 449 517 41,000  Level Denver Center
05:26AM 40.5981 -102.5039 294° West 450 518 41,000  Level Denver Center
05:27AM 40.7133 -102.5194 354° North 454 522 41,000  Level Denver Center
05:28AM 40.7686 -102.3817 62° Northeast 472 543 41,000  Level Denver Center
05:29AM 40.7144 -102.2069 112° Southeast 465 535 41,000  Level Denver Center
05:30AM 40.6592 -102.0600 116° Southeast 467 537 41,000  Level Denver Center
05:31AM 40.6083 -101.9156 115° Southeast 458 527 41,000  Level Denver Center
05:32AM 40.5925 -101.7522 97° East 473 544 41,000  Level Denver Center
05:33AM 40.5747 -101.5608 97° East 473 544 41,000  Level Denver Center
05:34AM 40.5608 -101.3958 96° East 476 548 41,000  Level Denver Center
05:35AM 40.5453 -101.2258 97° East 488 562 41,000  Level Denver Center
05:36AM 40.5364 -101.0278 93° East 490 564 41,000  Level Denver Center
05:37AM 40.5306 -100.8617 93° East 482 555 41,000  Level Denver Center
05:38AM 40.5253 -100.6928 92° East 487 560 41,000  Level Denver Center
05:39AM 40.5183 -100.4931 93° East 495 570 41,000  Level Denver Center
05:40AM 40.5128 -100.3253 92° East 486 559 41,000  Level Denver Center
05:41AM 40.5056 -100.1575 93° East 483 556 41,000  Level Denver Center
05:42AM 40.4992 -99.9611 92° East 485 558 41,000  Level Denver Center
05:43AM 40.5036 -99.8042 88° East 487 560 41,000  Level Denver Center
05:44AM 40.5078 -99.6275 88° East 486 559 41,000  Level Denver Center
05:45AM 40.5111 -99.4481 89° East 492 566 41,000  Level Denver Center
05:45AM 40.5125 -99.3753 89° East 496 571 41,000  Level Denver Center
05:46AM 40.5158 -99.1950 89° East 497 572 41,000  Level Denver Center
05:47AM 40.5175 -99.0886 89° East 496 571 41,000  Level Minneapolis Center
05:48AM 40.5194 -98.9083 89° East 497 572 41,000  Level Minneapolis Center
05:49AM 40.5219 -98.7294 89° East 496 571 41,000  Level Minneapolis Center
05:50AM 40.5244 -98.5514 89° East 494 568 41,000  Level Minneapolis Center
05:51AM 40.5256 -98.3719 89° East 493 567 41,000  Level Minneapolis Center
05:52AM 40.5278 -98.1939 89° East 492 566 41,000  Level Minneapolis Center
05:53AM 40.5300 -98.0158 89° East 490 564 41,000  Level Minneapolis Center
05:54AM 40.6031 -97.8786 55° Northeast 493 567 41,000  Level Minneapolis Center
05:55AM 40.7325 -97.8678 North 474 545 41,000  Level Minneapolis Center
05:56AM 40.8581 -97.8653 North 462 532 41,000  Level Minneapolis Center
05:57AM 41.0094 -97.8150 14° North 467 537 41,000  Level Minneapolis Center
05:58AM 41.1375 -97.7653 16° North 476 548 41,000  Level Minneapolis Center
05:59AM 41.2642 -97.7153 17° North 479 551 41,000  Level Minneapolis Center
06:00AM 41.3739 -97.6733 16° North 476 548 41,000  Level Minneapolis Center
06:01AM 41.5014 -97.6258 16° North 475 547 41,000  Level Minneapolis Center
06:02AM 41.6272 -97.5794 15° North 471 542 41,000  Level Minneapolis Center
06:03AM 41.7517 -97.5319 16° North 465 535 41,000  Level Minneapolis Center
06:04AM 41.8781 -97.4836 16° North 467 537 41,000  Level Minneapolis Center
06:05AM 42.0058 -97.4342 16° North 473 544 41,000  Level Minneapolis Center
06:06AM 42.1317 -97.4203 North 464 534 41,000  Level Minneapolis Center
06:07AM 42.1842 -97.5564 298° West 438 504 41,000  Level Minneapolis Center
06:08AM 42.1467 -97.7067 251° West 424 488 41,000  Level Minneapolis Center
06:09AM 42.1072 -97.8558 250° West 424 488 41,000  Level Minneapolis Center
06:10AM 42.0706 -98.0069 252° West 425 489 41,000  Level Minneapolis Center
06:11AM 42.0639 -98.1858 267° West 434 499 41,000  Level Minneapolis Center
06:12AM 42.0586 -98.3428 267° West 428 493 41,000  Level Minneapolis Center
06:12AM 42.0567 -98.4361 268° West 422 486 41,000  Level Minneapolis Center
06:13AM 42.0514 -98.5919 267° West 419 482 41,000  Level Minneapolis Center
06:14AM 42.0461 -98.7489 267° West 421 484 41,000  Level Minneapolis Center
06:15AM 42.0422 -98.9058 268° West 422 486 41,000  Level Minneapolis Center
06:16AM 42.0364 -99.0628 267° West 422 486 41,000  Level Minneapolis Center
06:17AM 42.0336 -99.1258 267° West 426 490 41,000  Level Denver Center
06:18AM 42.0281 -99.2842 267° West 425 489 41,000  Level Denver Center
06:18AM 42.0258 -99.3783 268° West 423 487 41,000  Level Minneapolis Center
06:19AM 42.0194 -99.5347 267° West 422 486 41,000  Level Minneapolis Center
06:20AM 42.0147 -99.6292 266° West 421 484 41,000  Level Denver Center
06:21AM 42.0094 -99.7731 267° West 426 490 41,000  Level Denver Center
06:22AM 42.0031 -99.9214 267° West 421 484 41,000  Level Denver Center
06:23AM 41.9992 -100.1242 269° West 423 487 41,000  Level Denver Center
06:24AM 42.0003 -100.2764 271° West 425 489 41,000  Level Denver Center
06:25AM 42.0003 -100.4531 270° West 425 489 41,000  Level Denver Center
06:26AM 41.9994 -100.6069 270° West 430 495 41,000  Level Denver Center
06:27AM 41.9981 -100.7586 269° West 428 493 41,000  Level Denver Center
06:28AM 41.9969 -100.9342 270° West 422 486 41,000  Level Denver Center
06:29AM 41.9956 -101.0883 269° West 431 496 41,000  Level Denver Center
06:30AM 41.9944 -101.2414 269° West 431 496 41,000  Level Denver Center
06:31AM 41.9922 -101.3950 269° West 429 494 41,000  Level Denver Center
06:32AM 41.9908 -101.5728 269° West 428 493 41,000  Level Denver Center
06:33AM 41.9875 -101.7275 268° West 432 497 41,000  Level Denver Center
06:34AM 41.9853 -101.8844 269° West 438 504 41,000  Level Denver Center
06:35AM 41.9819 -102.0650 269° West 435 501 41,000  Level Denver Center
06:36AM 41.9797 -102.2197 269° West 434 499 41,000  Level Denver Center
06:37AM 41.9756 -102.3914 268° West 433 498 41,000  Level Denver Center
06:38AM 41.9744 -102.5481 270° West 437 503 41,000  Level Denver Center
06:39AM 42.0550 -102.6561 315° West 449 517 41,000  Level Denver Center
06:40AM 42.1761 -102.6086 16° North 478 550 41,000  Level Denver Center
06:41AM 42.3083 -102.5214 26° Northeast 475 547 41,000  Level Denver Center
06:42AM 42.4319 -102.4803 14° North 482 555 41,000  Level Denver Center
06:43AM 42.5586 -102.4564 North 480 552 41,000  Level Denver Center
06:44AM 42.7061 -102.4317 North 481 554 41,000  Level Denver Center
06:45AM 42.8311 -102.3928 13° North 493 567 41,000  Level Denver Center
06:46AM 42.8875 -102.2378 64° Northeast 502 578 41,000  Level Denver Center
06:47AM 42.8647 -102.0619 100° East 497 572 41,000  Level Denver Center
06:48AM 42.8350 -101.8606 101° East 488 562 41,000  Level Denver Center
06:49AM 42.8164 -101.6986 99° East 494 568 41,000  Level Denver Center
06:50AM 42.8125 -101.4881 91° East 497 572 41,000  Level Denver Center
06:51AM 42.8125 -101.3047 90° East 500 575 41,000  Level Denver Center
06:52AM 42.8125 -101.1139 90° East 504 580 41,000  Level Denver Center
06:53AM 42.8139 -100.9258 89° East 499 574 41,000  Level Denver Center
06:54AM 42.8353 -100.7436 81° East 504 580 41,000  Level Denver Center
06:55AM 42.8758 -100.6947 41° Northeast 505 581 41,000  Level Minneapolis Center
06:56AM 42.9872 -100.5906 34° Northeast 493 567 41,000  Level Minneapolis Center
06:56AM 43.0517 -100.5208 38° Northeast 487 560 41,000  Level Denver Center
06:57AM 43.1594 -100.4119 36° Northeast 484 557 41,000  Level Denver Center
06:58AM 43.2033 -100.3686 36° Northeast 485 558 41,000  Level Minneapolis Center
06:59AM 43.3125 -100.2581 36° Northeast 488 562 41,000  Level Minneapolis Center
06:59AM 43.3783 -100.1869 38° Northeast 492 566 41,000  Level Denver Center
07:00AM 43.4219 -100.1444 35° Northeast 491 565 41,000  Level Minneapolis Center
07:01AM 43.5292 -100.0339 37° Northeast 488 562 41,000  Level Minneapolis Center
07:02AM 43.5519 -99.8494 80° East 509 586 41,000  Level Minneapolis Center
07:03AM 43.5378 -99.6625 96° East 500 575 41,000  Level Minneapolis Center
07:04AM 43.5342 -99.4722 91° East 499 574 41,000  Level Minneapolis Center
07:05AM 43.5353 -99.2817 89° East 500 575 41,000  Level Minneapolis Center
07:06AM 43.5367 -99.0906 89° East 500 575 41,000  Level Minneapolis Center
07:07AM 43.5372 -98.8986 90° East 503 579 41,000  Level Minneapolis Center
07:08AM 43.5378 -98.7069 90° East 502 578 41,000  Level Minneapolis Center
07:09AM 43.5372 -98.4917 90° East 496 571 41,000  Level Minneapolis Center
07:10AM 43.5369 -98.3019 90° East 497 572 41,000  Level Minneapolis Center
07:11AM 43.5364 -98.1106 90° East 500 575 41,000  Level Minneapolis Center
07:12AM 43.5350 -97.9192 91° East 501 577 41,000  Level Minneapolis Center
07:13AM 43.5364 -97.7319 89° East 493 567 41,000  Level Minneapolis Center
07:14AM 43.5403 -97.5425 88° East 494 568 41,000  Level Minneapolis Center
07:15AM 43.6253 -97.4081 49° Northeast 484 557 41,000  Level Minneapolis Center
07:16AM 43.7561 -97.4133 358° North 462 532 41,000  Level Minneapolis Center
07:17AM 43.8831 -97.4269 356° North 456 525 41,000  Level Minneapolis Center
07:18AM 44.0083 -97.4403 356° North 453 521 41,000  Level Minneapolis Center
07:19AM 44.1328 -97.4556 355° North 450 518 41,000  Level Minneapolis Center
07:20AM 44.2575 -97.4694 355° North 447 514 41,000  Level Minneapolis Center
07:21AM 44.3842 -97.4839 355° North 452 520 41,000  Level Minneapolis Center
07:22AM 44.5114 -97.4981 355° North 457 526 41,000  Level Minneapolis Center
07:23AM 44.6386 -97.5144 355° North 458 527 41,000  Level Minneapolis Center
07:24AM 44.7625 -97.5536 347° North 468 539 41,000  Level Minneapolis Center
07:25AM 44.7986 -97.7031 289° West 439 505 41,000 -240 Level Minneapolis Center
07:26AM 44.7728 -97.9011 260° West 432 497 40,600 -540 Descending Minneapolis Center
07:27AM 44.7608 -98.0650 264° West 429 494 40,000 -300 Descending Minneapolis Center
07:28AM 44.7625 -98.2264 271° West 420 483 40,000  Level Minneapolis Center
07:29AM 44.7631 -98.3972 270° West 420 483 40,000  Level Minneapolis Center
07:30AM 44.7631 -98.5639 270° West 424 488 40,000  Level Minneapolis Center
07:31AM 44.7622 -98.7303 270° West 426 490 40,000  Level Minneapolis Center
07:32AM 44.7619 -98.8956 270° West 424 488 40,000  Level Minneapolis Center
07:33AM 44.7614 -99.0600 270° West 422 486 40,000  Level Minneapolis Center
07:34AM 44.7597 -99.2272 269° West 425 489 40,000  Level Minneapolis Center
07:35AM 44.7586 -99.3944 270° West 427 491 40,000  Level Minneapolis Center
07:36AM 44.7561 -99.5606 269° West 424 488 40,000  Level Minneapolis Center
07:37AM 44.7544 -99.7292 269° West 428 493 40,000  Level Minneapolis Center
07:38AM 44.7475 -99.8989 267° West 429 494 40,000  Level Minneapolis Center
07:39AM 44.7050 -100.0567 249° West 427 491 40,000  Level Minneapolis Center
07:40AM 44.6406 -100.1933 237° Southwest 419 482 40,000  Level Minneapolis Center
07:41AM 44.5747 -100.3306 236° Southwest 420 483 40,000  Level Minneapolis Center
07:42AM 44.5092 -100.4689 236° Southwest 424 488 40,000  Level Minneapolis Center
07:43AM 44.4428 -100.6078 236° Southwest 428 493 40,000  Level Minneapolis Center
07:44AM 44.3758 -100.7458 236° Southwest 428 493 40,000  Level Minneapolis Center
07:45AM 44.3075 -100.8850 236° Southwest 431 496 40,000  Level Minneapolis Center
07:46AM 44.2400 -101.0233 236° Southwest 431 496 40,000  Level Minneapolis Center
07:47AM 44.1725 -101.1642 236° Southwest 434 499 40,000  Level Minneapolis Center
07:48AM 44.1233 -101.3544 250° West 436 502 40,000  Level Minneapolis Center
07:49AM 44.0858 -101.5142 252° West 436 502 40,100 420 Climbing Minneapolis Center
07:50AM 44.0486 -101.6728 252° West 435 501 40,900 420 Climbing Minneapolis Center
07:51AM 44.0094 -101.8325 251° West 435 501 41,000  Climbing Minneapolis Center
07:52AM 43.9711 -101.9894 251° West 433 498 41,000  Level Minneapolis Center
07:53AM 43.9628 -102.0194 249° West 431 496 41,000  Level Denver Center
07:54AM 43.9269 -102.1739 252° West 424 488 41,000  Level Denver Center
07:55AM 43.8892 -102.3269 251° West 421 484 41,000  Level Denver Center
07:56AM 43.8472 -102.5089 252° West 423 487 41,000  Level Denver Center
07:57AM 43.8089 -102.6586 251° West 429 494 41,000  Level Denver Center
07:58AM 43.7706 -102.8089 251° West 432 497 41,000  Level Denver Center
07:59AM 43.7272 -102.9803 251° West 426 490 41,000  Level Denver Center
08:00AM 43.6911 -103.1300 252° West 428 493 41,000  Level Denver Center
08:01AM 43.6528 -103.2778 250° West 428 493 41,000  Level Denver Center
08:02AM 43.6158 -103.4278 251° West 431 496 41,000  Level Denver Center
08:03AM 43.5736 -103.5986 251° West 425 489 41,000  Level Denver Center
08:04AM 43.5392 -103.7475 252° West 425 489 41,000  Level Denver Center
08:05AM 43.4514 -103.8303 214° Southwest 431 496 41,000  Level Denver Center
08:06AM 43.3144 -103.8108 174° South 439 505 41,100  Climbing Denver Center
08:07AM 43.1956 -103.8069 179° South 444 511 41,000 -60 Descending Denver Center
08:08AM 43.0764 -103.8036 179° South 444 511 41,000  Level Denver Center
08:09AM 42.9589 -103.8011 179° South 441 507 41,000  Level Denver Center
08:10AM 42.8261 -103.7975 179° South 429 494 41,000  Level Denver Center
08:11AM 42.7078 -103.7944 179° South 439 505 41,000  Level Denver Center
08:12AM 42.5869 -103.7919 179° South 448 516 41,000  Level Denver Center
08:13AM 42.4503 -103.7897 179° South 440 506 41,000  Level Denver Center
08:14AM 42.3297 -103.7867 179° South 437 503 41,000  Level Denver Center
08:15AM 42.2147 -103.7836 179° South 441 507 41,000  Level Denver Center
08:16AM 42.0775 -103.7783 178° South 442 509 41,000  Level Denver Center
08:17AM 41.9669 -103.8044 190° South 427 491 41,000  Level Denver Center
08:18AM 41.9447 -103.9422 258° West 422 486 41,000  Level Denver Center
08:19AM 41.9633 -104.0883 280° West 416 479 41,000  Level Denver Center
08:20AM 41.9850 -104.2572 280° West 412 474 41,000  Level Denver Center
08:21AM 41.9864 -104.3819 271° West 414 476 41,000  Level Denver Center
08:22AM 41.9786 -104.5536 267° West 411 473 41,000  Level Denver Center
08:23AM 41.9708 -104.7239 267° West 410 472 41,000  Level Denver Center
08:24AM 41.9631 -104.8664 266° West 403 464 41,000  Level Denver Center
08:25AM 41.9556 -105.0092 266° West 399 459 41,000  Level Denver Center
08:26AM 41.9578 -105.1756 271° West 400 460 41,000  Level Denver Center
08:27AM 41.9622 -105.3211 272° West 405 466 41,000  Level Denver Center
08:28AM 41.9658 -105.4664 272° West 404 465 41,000  Level Denver Center
08:29AM 41.9694 -105.6114 272° West 407 468 41,000  Level Denver Center
08:30AM 41.9736 -105.7806 272° West 407 468 41,000  Level Denver Center
08:31AM 41.9786 -105.9303 273° West 416 479 41,000  Level Denver Center
08:32AM 41.9825 -106.0822 272° West 420 483 41,000  Level Denver Center
08:33AM 41.9858 -106.2561 272° West 419 482 41,000  Level Denver Center
08:34AM 41.9872 -106.4067 271° West 421 484 41,000  Level Denver Center
08:35AM 41.9917 -106.5683 272° West 429 494 41,000  Level Denver Center
08:36AM 41.9958 -106.7467 272° West 429 494 41,000  Level Denver Center
08:37AM 41.9972 -106.8986 271° West 426 490 41,000  Level Denver Center
08:38AM 42.0000 -107.0508 271° West 427 491 41,000  Level Denver Center
08:39AM 42.0025 -107.2297 271° West 430 495 41,000  Level Denver Center
08:40AM 42.0039 -107.3836 271° West 432 497 41,000  Level Denver Center
08:41AM 42.0225 -107.5325 280° West 433 498 41,000  Level Denver Center
08:42AM 42.0647 -107.6456 297° West 434 499 41,000  Level Salt Lake Center
08:43AM 42.0764 -107.7936 276° West 427 491 41,000  Level Salt Lake Center
08:44AM 42.0525 -107.9681 260° West 428 493 41,000  Level Salt Lake Center
08:45AM 42.0344 -108.1228 261° West 437 503 41,000  Level Salt Lake Center
08:46AM 42.0178 -108.2733 262° West 429 494 41,000  Level Salt Lake Center
08:47AM 42.0114 -108.4483 267° West 420 483 41,000  Level Salt Lake Center
08:48AM 42.0117 -108.5992 270° West 423 487 41,000  Level Salt Lake Center
08:49AM 42.0114 -108.7511 270° West 425 489 41,000  Level Salt Lake Center
08:50AM 42.0117 -108.9275 270° West 426 490 41,000  Level Salt Lake Center
08:51AM 42.0103 -109.0783 269° West 424 488 41,000  Level Salt Lake Center
08:52AM 42.0103 -109.2553 270° West 426 490 41,000  Level Salt Lake Center
08:53AM 42.0092 -109.4064 269° West 426 490 41,000  Level Salt Lake Center
08:54AM 42.0075 -109.5594 269° West 428 493 41,000  Level Salt Lake Center
08:55AM 42.0053 -109.7372 269° West 428 493 41,000  Level Salt Lake Center
08:56AM 42.0042 -109.8872 269° West 423 487 41,000  Level Salt Lake Center
08:57AM 41.9831 -110.0303 259° West 423 487 41,000  Level Salt Lake Center
08:58AM 41.8567 -110.0608 190° South 448 516 41,000  Level Salt Lake Center
08:59AM 41.7381 -110.0536 177° South 446 513 41,000  Level Salt Lake Center
09:00AM 41.6225 -110.0472 178° South 439 505 41,000  Level Salt Lake Center
09:01AM 41.4872 -110.0369 177° South 438 504 41,000  Level Salt Lake Center
09:02AM 41.3697 -110.0275 177° South 442 509 41,000  Level Salt Lake Center
09:03AM 41.2353 -110.0178 177° South 438 504 41,000  Level Salt Lake Center
09:04AM 41.1189 -110.0103 177° South 437 503 41,000  Level Salt Lake Center
09:05AM 41.0017 -110.0039 178° South 442 509 41,000  Level Salt Lake Center
09:06AM 40.9019 -110.0833 211° Southwest 405 466 41,000  Level Salt Lake Center
09:07AM 40.8675 -110.2172 251° West 403 464 41,000  Level Salt Lake Center
09:08AM 40.8306 -110.3558 251° West 414 476 41,000  Level Salt Lake Center
09:09AM 40.7903 -110.5150 252° West 410 472 41,000  Level Salt Lake Center
09:10AM 40.7544 -110.6553 251° West 405 466 41,000  Level Salt Lake Center
09:11AM 40.7181 -110.7967 251° West 407 468 41,000  Level Salt Lake Center
09:12AM 40.6989 -110.9400 260° West 404 465 41,000  Level Salt Lake Center
09:13AM 40.7975 -111.0219 328° Northwest 443 510 41,000  Level Salt Lake Center
09:14AM 40.9322 -111.0014 North 486 559 41,000  Level Salt Lake Center
09:15AM 41.0656 -111.0075 358° North 482 555 41,000  Level Salt Lake Center
09:16AM 41.1939 -111.0372 350° North 474 545 41,000  Level Salt Lake Center
09:17AM 41.3206 -111.0703 349° North 468 539 41,000  Level Salt Lake Center
09:18AM 41.4731 -111.1114 349° North 470 541 41,000  Level Salt Lake Center
09:19AM 41.6031 -111.1458 349° North 476 548 41,000  Level Salt Lake Center
09:20AM 41.7322 -111.1814 348° North 478 550 41,000  Level Salt Lake Center
09:21AM 41.8608 -111.2147 349° North 473 544 41,000  Level Salt Lake Center
09:23AM 41.9897 -111.2492 349° North 474 545 41,000  Level Salt Lake Center
09:24AM 42.1219 -111.2636 355° North 476 548 41,000  Level Salt Lake Center
09:25AM 42.2536 -111.2731 357° North 475 547 41,000  Level Salt Lake Center
09:26AM 42.3850 -111.2842 356° North 475 547 41,000  Level Salt Lake Center
09:27AM 42.5189 -111.2944 357° North 481 554 41,000  Level Salt Lake Center
09:28AM 42.6514 -111.3067 356° North 477 549 41,000  Level Salt Lake Center
09:29AM 42.7989 -111.3156 357° North 480 552 41,000  Level Salt Lake Center
09:30AM 42.9283 -111.3269 356° North 485 558 41,000  Level Salt Lake Center
09:31AM 43.0783 -111.3394 357° North 483 556 41,000  Level Salt Lake Center
09:32AM 43.2086 -111.3489 357° North 487 560 41,000  Level Salt Lake Center
09:33AM 43.3592 -111.3619 356° North 486 559 41,000  Level Salt Lake Center
09:34AM 43.4878 -111.3717 357° North 483 556 41,000  Level Salt Lake Center
09:35AM 43.6167 -111.3572 North 490 564 41,000  Level Salt Lake Center
09:36AM 43.6831 -111.1722 64° Northeast 507 583 41,000  Level Salt Lake Center
09:37AM 43.6622 -110.9892 99° East 505 581 41,000  Level Salt Lake Center
09:38AM 43.6339 -110.7731 100° East 513 590 41,000  Level Salt Lake Center
09:39AM 43.6044 -110.5922 103° East 510 587 41,000  Level Salt Lake Center
09:40AM 43.5750 -110.4194 103° East 491 565 41,000  Level Salt Lake Center
09:41AM 43.5564 -110.2072 97° East 504 580 41,000  Level Salt Lake Center
09:42AM 43.5508 -110.0239 92° East 501 577 41,000  Level Salt Lake Center
09:43AM 43.5461 -109.8094 92° East 500 575 41,000  Level Salt Lake Center
09:44AM 43.5422 -109.6283 92° East 496 571 41,000  Level Salt Lake Center
09:45AM 43.5367 -109.4214 92° East 505 581 41,000  Level Salt Lake Center
09:46AM 43.5311 -109.2342 92° East 509 586 41,000  Level Salt Lake Center
09:47AM 43.5261 -109.0572 92° East 489 563 41,000  Level Salt Lake Center
09:48AM 43.5197 -108.8483 92° East 490 564 41,000  Level Salt Lake Center
09:49AM 43.5133 -108.6653 93° East 498 573 41,000  Level Salt Lake Center
09:50AM 43.5067 -108.4581 92° East 490 564 41,000  Level Salt Lake Center
09:51AM 43.5000 -108.2819 93° East 483 556 41,000  Level Salt Lake Center
09:52AM 43.4922 -108.0700 93° East 496 571 41,000  Level Salt Lake Center
09:53AM 43.4847 -107.8894 93° East 496 571 41,000  Level Salt Lake Center
09:54AM 43.4772 -107.7108 93° East 492 566 41,000  Level Salt Lake Center
09:55AM 43.4700 -107.5022 93° East 490 564 41,000  Level Salt Lake Center
09:56AM 43.4731 -107.3217 89° East 494 568 41,000  Level Salt Lake Center
09:57AM 43.4761 -107.1986 88° East 499 574 41,000  Level Denver Center
09:57AM 43.4769 -107.1083 89° East 500 575 41,000  Level Salt Lake Center
09:58AM 43.4803 -106.9272 88° East 497 572 41,000  Level Salt Lake Center
09:59AM 43.4836 -106.8142 88° East 494 568 41,000  Level Denver Center
10:00AM 43.4864 -106.6322 89° East 497 572 41,000  Level Denver Center
10:00AM 43.4872 -106.5422 89° East 498 573 41,000  Level Salt Lake Center
10:01AM 43.4906 -106.3319 89° East 491 565 41,000  Level Salt Lake Center
10:02AM 43.4917 -106.2428 89° East 486 559 41,000  Level Denver Center
10:03AM 43.4928 -106.0311 90° East 496 571 41,000  Level Denver Center
10:04AM 43.4950 -105.8125 89° East 510 587 41,000  Level Denver Center
10:05AM 43.4967 -105.5958 89° East 505 581 41,000  Level Denver Center
10:06AM 43.4986 -105.4403 89° East 508 585 41,000  Level Denver Center
10:07AM 43.4986 -105.2208 90° East 511 588 41,000  Level Denver Center
10:08AM 43.4989 -105.0036 90° East 509 586 41,000  Level Denver Center
10:09AM 43.4592 -104.8381 108° East 495 570 41,000  Level Denver Center
10:10AM 43.3253 -104.8178 174° South 446 513 41,000 -480 Level Denver Center
10:11AM 43.2114 -104.8597 195° South 444 511 40,100 -540 Descending Denver Center
10:12AM 43.0847 -104.9153 198° South 434 499 40,000 -60 Descending Denver Center
10:13AM 42.9753 -104.9619 197° South 431 496 40,000  Level Denver Center
10:14AM 42.8653 -105.0103 198° South 435 501 40,000  Level Denver Center
10:15AM 42.7383 -105.0650 198° South 431 496 40,000  Level Denver Center
10:16AM 42.6269 -105.1106 197° South 435 501 40,000  Level Denver Center
10:18AM 42.5167 -105.1569 197° South 436 502 40,000  Level Denver Center
10:19AM 42.3889 -105.2100 197° South 434 499 40,000  Level Denver Center
10:20AM 42.2619 -105.2614 197° South 428 493 40,000  Level Denver Center
10:21AM 42.1531 -105.3067 197° South 429 494 40,000  Level Denver Center
10:22AM 42.0253 -105.3617 198° South 431 496 40,000 -360 Level Denver Center
10:23AM 41.9164 -105.4047 196° South 429 494 39,300 -1,500 Descending Denver Center
10:24AM 41.7869 -105.4572 197° South 435 501 37,000 -1,620 Descending Denver Center
10:25AM 41.6756 -105.5033 197° South 438 504 36,000 -540 Descending Denver Center
10:26AM 41.5450 -105.5561 197° South 439 505 36,000  Level Denver Center
10:27AM 41.4303 -105.5867 191° South 440 506 36,000  Level Denver Center
10:28AM 41.2875 -105.5656 174° South 458 527 36,000  Level Denver Center
10:29AM 41.1711 -105.5508 175° South 443 510 36,000 -1,500 Level Denver Center
10:30AM 41.0317 -105.5306 174° South 450 518 32,900 -2,760 Descending Denver Center
10:31AM 40.9167 -105.5142 174° South 456 525 30,300 -2,760 Descending Denver Center
10:32AM 40.7933 -105.4961 174° South 448 516 27,300 -3,300 Descending Denver Center
10:33AM 40.6503 -105.4783 175° South 435 501 23,600 -2,460 Descending Denver Center
10:34AM 40.5361 -105.4608 173° South 412 474 22,300 -1,140 Descending Denver Center
10:35AM 40.4358 -105.4467 174° South 371 427 21,300 -1,500 Descending Denver Center
10:36AM 40.3350 -105.3900 157° South 366 421 19,200 -2,100 Descending Denver Center
10:37AM 40.2483 -105.3233 150° Southeast 364 419 17,000 -2,280 Descending Denver Center
10:38AM 40.1569 -105.2531 150° Southeast 359 413 14,600 -2,040 Descending Denver Center
10:39AM 40.0772 -105.1925 150° Southeast 335 386 12,800 -1,500 Descending Denver Center
10:40AM 40.0033 -105.1350 149° Southeast 283 326 11,500 -1,380 Descending Denver Center
10:41AM 39.9672 -105.0578 121° Southeast 247 284 10,000 -1,380 Descending Denver Center
10:42AM 39.9353 -104.9803 118° Southeast 220 253 8,700 -1,260 Descending Denver Center
10:43AM 39.9017 -104.9578 153° Southeast 201 231 7,500 -840 Descending Denver Center
10:44AM 39.8703 -105.0186 236° Southwest 169 194 7,000 -720 Descending Denver Center
10:45AM 39.8867 -105.0742 291° West 153 176 6,000 -780 Descending Denver Center
10:46AM 39.9089 -105.1169 304° West 143 165 5,500 -540 Descending Denver Center
10:48AM 39.9088 -105.1172 105° East  Level Estimated
10:55AM 39.9088 -105.1172 70° East  Level Estimated
10:56AM 39.9088 -105.1172 66° East  Level Estimated
10:57AM 39.9088 -105.1172 70° East  Level Estimated